West Miami, Florida
Current Conditions -  °F | °C
As of 2:53 AM on Sunday 23 Nov 2014 (Local Time) from KMIA Reporting Station
Broken Clouds Broken Clouds  
Wind Chill: 77°   Ceiling: 2500
Heat Index: 78°   Visibility: 10mi
Dew Point: 72°   Wind: 12mph
Humidity: 84%   Direction: 110°ESE
Pressure: 30.02"   Gusts: NA
Location:  25.7365°N, 80.3112°W
Report Text: KMIA 230753Z 11010KT 10SM FEW018 BKN025 BKN032 25/22 A3002 RMK AO2 SLP166 98000 T02500222
Loading
Personal Weather Stations






























Interactive Weather Map New forecast layout! Learn more

10-Day Weather Forecast

Advertisements
Track Severe Weather on mobile